sensor_id;sensor_type;location;lat;lon;timestamp;P1;durP1;ratioP1;P2;durP2;ratioP2
75766;SDS011;64378;55.596;13.014;2023-03-21T00:00:31;5.53;;;1.38;;
75766;SDS011;64378;55.596;13.014;2023-03-21T00:02:57;4.93;;;1.15;;
75766;SDS011;64378;55.596;13.014;2023-03-21T00:05:22;6.47;;;1.40;;
75766;SDS011;64378;55.596;13.014;2023-03-21T00:07:48;5.13;;;1.27;;
75766;SDS011;64378;55.596;13.014;2023-03-21T00:10:13;5.90;;;1.10;;
75766;SDS011;64378;55.596;13.014;2023-03-21T00:12:39;6.10;;;1.30;;
75766;SDS011;64378;55.596;13.014;2023-03-21T00:15:05;5.27;;;1.10;;
75766;SDS011;64378;55.596;13.014;2023-03-21T00:17:31;5.63;;;1.40;;
75766;SDS011;64378;55.596;13.014;2023-03-21T00:19:57;4.53;;;1.30;;
75766;SDS011;64378;55.596;13.014;2023-03-21T00:22:24;4.30;;;1.45;;
75766;SDS011;64378;55.596;13.014;2023-03-21T00:24:51;5.90;;;1.20;;
75766;SDS011;64378;55.596;13.014;2023-03-21T00:27:17;4.90;;;1.30;;
75766;SDS011;64378;55.596;13.014;2023-03-21T00:29:44;4.40;;;1.00;;
75766;SDS011;64378;55.596;13.014;2023-03-21T00:32:13;4.43;;;1.27;;
75766;SDS011;64378;55.596;13.014;2023-03-21T00:34:42;4.38;;;1.20;;
75766;SDS011;64378;55.596;13.014;2023-03-21T00:37:08;4.22;;;1.17;;
75766;SDS011;64378;55.596;13.014;2023-03-21T00:39:36;4.78;;;1.10;;
75766;SDS011;64378;55.596;13.014;2023-03-21T00:42:01;5.00;;;1.30;;
75766;SDS011;64378;55.596;13.014;2023-03-21T00:44:27;3.78;;;1.00;;
75766;SDS011;64378;55.596;13.014;2023-03-21T00:46:53;4.17;;;1.30;;
75766;SDS011;64378;55.596;13.014;2023-03-21T00:49:18;4.93;;;1.30;;
75766;SDS011;64378;55.596;13.014;2023-03-21T00:51:47;4.50;;;1.20;;
75766;SDS011;64378;55.596;13.014;2023-03-21T00:54:15;6.45;;;1.45;;
75766;SDS011;64378;55.596;13.014;2023-03-21T00:56:40;4.30;;;1.38;;
75766;SDS011;64378;55.596;13.014;2023-03-21T00:59:06;4.30;;;1.30;;
75766;SDS011;64378;55.596;13.014;2023-03-21T01:01:31;4.50;;;1.40;;
75766;SDS011;64378;55.596;13.014;2023-03-21T01:04:00;5.27;;;1.10;;
75766;SDS011;64378;55.596;13.014;2023-03-21T01:06:34;5.90;;;1.40;;
75766;SDS011;64378;55.596;13.014;2023-03-21T01:09:04;4.80;;;1.20;;
75766;SDS011;64378;55.596;13.014;2023-03-21T01:11:32;4.15;;;1.27;;
75766;SDS011;64378;55.596;13.014;2023-03-21T01:13:58;5.80;;;1.50;;
75766;SDS011;64378;55.596;13.014;2023-03-21T01:16:24;5.93;;;1.50;;
75766;SDS011;64378;55.596;13.014;2023-03-21T01:18:49;5.20;;;1.30;;
75766;SDS011;64378;55.596;13.014;2023-03-21T01:21:15;4.20;;;1.13;;
75766;SDS011;64378;55.596;13.014;2023-03-21T01:23:41;4.70;;;1.20;;
75766;SDS011;64378;55.596;13.014;2023-03-21T01:26:08;3.80;;;1.10;;
75766;SDS011;64378;55.596;13.014;2023-03-21T01:28:35;3.65;;;1.10;;
75766;SDS011;64378;55.596;13.014;2023-03-21T01:31:02;3.80;;;1.20;;
75766;SDS011;64378;55.596;13.014;2023-03-21T01:33:29;4.60;;;1.40;;
75766;SDS011;64378;55.596;13.014;2023-03-21T01:35:55;5.22;;;1.30;;
75766;SDS011;64378;55.596;13.014;2023-03-21T01:38:20;4.38;;;1.30;;
75766;SDS011;64378;55.596;13.014;2023-03-21T01:40:46;5.67;;;1.20;;
75766;SDS011;64378;55.596;13.014;2023-03-21T01:46:11;4.80;;;1.10;;
75766;SDS011;64378;55.596;13.014;2023-03-21T01:48:45;4.70;;;1.20;;
75766;SDS011;64378;55.596;13.014;2023-03-21T01:51:14;4.97;;;1.27;;
75766;SDS011;64378;55.596;13.014;2023-03-21T01:53:40;5.10;;;1.40;;
75766;SDS011;64378;55.596;13.014;2023-03-21T01:56:08;4.17;;;1.27;;
75766;SDS011;64378;55.596;13.014;2023-03-21T01:58:37;4.40;;;1.20;;
75766;SDS011;64378;55.596;13.014;2023-03-21T02:01:06;5.67;;;1.17;;
75766;SDS011;64378;55.596;13.014;2023-03-21T02:03:33;4.63;;;1.20;;
75766;SDS011;64378;55.596;13.014;2023-03-21T02:06:14;4.50;;;1.30;;
75766;SDS011;64378;55.596;13.014;2023-03-21T02:08:46;4.88;;;1.30;;
75766;SDS011;64378;55.596;13.014;2023-03-21T02:11:12;5.75;;;1.30;;
75766;SDS011;64378;55.596;13.014;2023-03-21T02:13:38;4.85;;;1.30;;
75766;SDS011;64378;55.596;13.014;2023-03-21T02:21:56;5.47;;;1.40;;
75766;SDS011;64378;55.596;13.014;2023-03-21T02:27:30;5.60;;;1.37;;
75766;SDS011;64378;55.596;13.014;2023-03-21T02:35:18;4.85;;;1.50;;
75766;SDS011;64378;55.596;13.014;2023-03-21T02:40:41;3.90;;;1.30;;
75766;SDS011;64378;55.596;13.014;2023-03-21T02:43:46;5.10;;;1.40;;
75766;SDS011;64378;55.596;13.014;2023-03-21T02:46:15;4.13;;;1.40;;
75766;SDS011;64378;55.596;13.014;2023-03-21T02:48:50;5.07;;;1.40;;
75766;SDS011;64378;55.596;13.014;2023-03-21T02:51:20;3.53;;;1.15;;
75766;SDS011;64378;55.596;13.014;2023-03-21T02:53:52;4.87;;;1.43;;
75766;SDS011;64378;55.596;13.014;2023-03-21T02:56:22;4.10;;;1.38;;
75766;SDS011;64378;55.596;13.014;2023-03-21T02:58:50;5.05;;;1.50;;
75766;SDS011;64378;55.596;13.014;2023-03-21T03:01:16;4.87;;;1.33;;
75766;SDS011;64378;55.596;13.014;2023-03-21T03:03:41;5.93;;;1.30;;
75766;SDS011;64378;55.596;13.014;2023-03-21T03:06:29;4.57;;;1.15;;
75766;SDS011;64378;55.596;13.014;2023-03-21T03:12:12;4.93;;;1.33;;
75766;SDS011;64378;55.596;13.014;2023-03-21T03:14:57;4.07;;;1.15;;
75766;SDS011;64378;55.596;13.014;2023-03-21T03:17:34;4.47;;;1.40;;
75766;SDS011;64378;55.596;13.014;2023-03-21T03:25:44;4.90;;;1.20;;
75766;SDS011;64378;55.596;13.014;2023-03-21T03:28:14;4.03;;;1.30;;
75766;SDS011;64378;55.596;13.014;2023-03-21T03:30:45;3.72;;;1.30;;
75766;SDS011;64378;55.596;13.014;2023-03-21T03:33:12;4.13;;;1.23;;
75766;SDS011;64378;55.596;13.014;2023-03-21T03:35:41;3.80;;;1.10;;
75766;SDS011;64378;55.596;13.014;2023-03-21T03:38:08;4.70;;;1.47;;
75766;SDS011;64378;55.596;13.014;2023-03-21T03:43:16;4.05;;;1.20;;
75766;SDS011;64378;55.596;13.014;2023-03-21T03:45:49;4.30;;;1.30;;
75766;SDS011;64378;55.596;13.014;2023-03-21T03:48:26;3.67;;;1.30;;
75766;SDS011;64378;55.596;13.014;2023-03-21T03:51:00;5.20;;;1.50;;
75766;SDS011;64378;55.596;13.014;2023-03-21T03:53:41;5.10;;;1.40;;
75766;SDS011;64378;55.596;13.014;2023-03-21T03:56:10;4.32;;;1.42;;
75766;SDS011;64378;55.596;13.014;2023-03-21T03:58:37;4.85;;;1.50;;
75766;SDS011;64378;55.596;13.014;2023-03-21T04:01:04;3.87;;;1.30;;
75766;SDS011;64378;55.596;13.014;2023-03-21T04:03:34;5.65;;;1.48;;
75766;SDS011;64378;55.596;13.014;2023-03-21T04:06:02;5.72;;;1.50;;
75766;SDS011;64378;55.596;13.014;2023-03-21T04:08:28;4.38;;;1.40;;
75766;SDS011;64378;55.596;13.014;2023-03-21T04:10:54;5.25;;;1.50;;
75766;SDS011;64378;55.596;13.014;2023-03-21T04:13:20;5.55;;;1.40;;
75766;SDS011;64378;55.596;13.014;2023-03-21T04:15:45;4.40;;;1.30;;
75766;SDS011;64378;55.596;13.014;2023-03-21T04:18:10;4.83;;;1.63;;
75766;SDS011;64378;55.596;13.014;2023-03-21T04:20:36;3.20;;;1.20;;
75766;SDS011;64378;55.596;13.014;2023-03-21T04:23:01;4.07;;;1.20;;
75766;SDS011;64378;55.596;13.014;2023-03-21T04:25:27;6.00;;;1.40;;
75766;SDS011;64378;55.596;13.014;2023-03-21T04:27:53;4.70;;;1.50;;
75766;SDS011;64378;55.596;13.014;2023-03-21T04:30:19;3.95;;;1.50;;
75766;SDS011;64378;55.596;13.014;2023-03-21T04:32:45;4.05;;;1.50;;
75766;SDS011;64378;55.596;13.014;2023-03-21T04:35:18;4.57;;;1.30;;
75766;SDS011;64378;55.596;13.014;2023-03-21T04:37:44;4.30;;;1.30;;
75766;SDS011;64378;55.596;13.014;2023-03-21T04:40:09;4.90;;;1.23;;
75766;SDS011;64378;55.596;13.014;2023-03-21T04:42:36;4.33;;;1.47;;
75766;SDS011;64378;55.596;13.014;2023-03-21T04:45:01;5.07;;;1.30;;
75766;SDS011;64378;55.596;13.014;2023-03-21T04:47:27;4.40;;;1.27;;
75766;SDS011;64378;55.596;13.014;2023-03-21T04:49:53;4.25;;;1.10;;
75766;SDS011;64378;55.596;13.014;2023-03-21T04:52:18;4.20;;;1.33;;
75766;SDS011;64378;55.596;13.014;2023-03-21T04:54:44;3.60;;;1.23;;
75766;SDS011;64378;55.596;13.014;2023-03-21T04:57:10;3.92;;;1.40;;
75766;SDS011;64378;55.596;13.014;2023-03-21T04:59:36;3.90;;;1.30;;
75766;SDS011;64378;55.596;13.014;2023-03-21T05:02:01;4.75;;;1.50;;
75766;SDS011;64378;55.596;13.014;2023-03-21T05:04:27;5.55;;;1.40;;
75766;SDS011;64378;55.596;13.014;2023-03-21T05:06:53;5.43;;;1.37;;
75766;SDS011;64378;55.596;13.014;2023-03-21T05:09:19;6.15;;;1.55;;
75766;SDS011;64378;55.596;13.014;2023-03-21T05:11:46;4.93;;;1.35;;
75766;SDS011;64378;55.596;13.014;2023-03-21T05:14:18;4.20;;;1.25;;
75766;SDS011;64378;55.596;13.014;2023-03-21T05:16:45;3.83;;;1.25;;
75766;SDS011;64378;55.596;13.014;2023-03-21T05:19:28;5.20;;;1.55;;
75766;SDS011;64378;55.596;13.014;2023-03-21T05:22:05;5.55;;;1.45;;
75766;SDS011;64378;55.596;13.014;2023-03-21T05:24:32;3.80;;;1.33;;
75766;SDS011;64378;55.596;13.014;2023-03-21T05:26:59;3.70;;;1.20;;
75766;SDS011;64378;55.596;13.014;2023-03-21T05:29:28;3.30;;;1.25;;
75766;SDS011;64378;55.596;13.014;2023-03-21T05:31:55;3.25;;;1.33;;
75766;SDS011;64378;55.596;13.014;2023-03-21T05:34:21;3.55;;;1.20;;
75766;SDS011;64378;55.596;13.014;2023-03-21T05:36:46;3.70;;;1.37;;
75766;SDS011;64378;55.596;13.014;2023-03-21T05:39:11;3.67;;;1.30;;
75766;SDS011;64378;55.596;13.014;2023-03-21T05:41:37;5.87;;;1.40;;
75766;SDS011;64378;55.596;13.014;2023-03-21T05:44:02;4.82;;;1.67;;
75766;SDS011;64378;55.596;13.014;2023-03-21T05:46:28;4.90;;;1.77;;
75766;SDS011;64378;55.596;13.014;2023-03-21T05:48:53;4.27;;;1.20;;
75766;SDS011;64378;55.596;13.014;2023-03-21T05:51:18;3.43;;;1.33;;
75766;SDS011;64378;55.596;13.014;2023-03-21T05:53:44;4.10;;;1.20;;
75766;SDS011;64378;55.596;13.014;2023-03-21T05:56:09;3.07;;;1.10;;
75766;SDS011;64378;55.596;13.014;2023-03-21T05:58:35;3.50;;;1.10;;
75766;SDS011;64378;55.596;13.014;2023-03-21T06:01:00;4.10;;;1.35;;
75766;SDS011;64378;55.596;13.014;2023-03-21T06:03:26;6.38;;;1.33;;
75766;SDS011;64378;55.596;13.014;2023-03-21T06:05:51;18.03;;;1.70;;
75766;SDS011;64378;55.596;13.014;2023-03-21T06:08:16;5.10;;;1.37;;
75766;SDS011;64378;55.596;13.014;2023-03-21T06:10:42;4.03;;;1.33;;
75766;SDS011;64378;55.596;13.014;2023-03-21T06:13:07;5.20;;;1.50;;
75766;SDS011;64378;55.596;13.014;2023-03-21T06:15:32;4.97;;;1.10;;
75766;SDS011;64378;55.596;13.014;2023-03-21T06:17:58;6.87;;;1.30;;
75766;SDS011;64378;55.596;13.014;2023-03-21T06:20:23;6.37;;;1.40;;
75766;SDS011;64378;55.596;13.014;2023-03-21T06:22:49;5.50;;;1.33;;
75766;SDS011;64378;55.596;13.014;2023-03-21T06:25:14;5.78;;;1.20;;
75766;SDS011;64378;55.596;13.014;2023-03-21T06:27:40;6.32;;;1.42;;
75766;SDS011;64378;55.596;13.014;2023-03-21T06:30:06;4.63;;;1.35;;
75766;SDS011;64378;55.596;13.014;2023-03-21T06:32:32;7.03;;;1.90;;
75766;SDS011;64378;55.596;13.014;2023-03-21T06:34:58;9.50;;;2.97;;
75766;SDS011;64378;55.596;13.014;2023-03-21T06:37:23;11.20;;;4.10;;
75766;SDS011;64378;55.596;13.014;2023-03-21T06:39:50;13.68;;;5.63;;
75766;SDS011;64378;55.596;13.014;2023-03-21T06:42:15;16.73;;;6.80;;
75766;SDS011;64378;55.596;13.014;2023-03-21T06:44:41;19.43;;;8.47;;
75766;SDS011;64378;55.596;13.014;2023-03-21T06:47:06;21.37;;;9.73;;
75766;SDS011;64378;55.596;13.014;2023-03-21T06:49:31;24.40;;;10.33;;
75766;SDS011;64378;55.596;13.014;2023-03-21T06:51:57;24.97;;;10.90;;
75766;SDS011;64378;55.596;13.014;2023-03-21T06:54:22;23.95;;;11.10;;
75766;SDS011;64378;55.596;13.014;2023-03-21T06:56:48;25.88;;;12.57;;
75766;SDS011;64378;55.596;13.014;2023-03-21T06:59:13;25.58;;;12.57;;
75766;SDS011;64378;55.596;13.014;2023-03-21T07:01:39;25.83;;;12.33;;
75766;SDS011;64378;55.596;13.014;2023-03-21T07:04:04;23.50;;;11.05;;
75766;SDS011;64378;55.596;13.014;2023-03-21T07:06:30;27.25;;;12.32;;
75766;SDS011;64378;55.596;13.014;2023-03-21T07:08:56;27.40;;;12.50;;
75766;SDS011;64378;55.596;13.014;2023-03-21T07:11:22;29.38;;;12.60;;
75766;SDS011;64378;55.596;13.014;2023-03-21T07:13:48;29.00;;;12.52;;
75766;SDS011;64378;55.596;13.014;2023-03-21T07:16:15;26.88;;;12.15;;
75766;SDS011;64378;55.596;13.014;2023-03-21T07:18:41;29.10;;;12.85;;
75766;SDS011;64378;55.596;13.014;2023-03-21T07:21:07;23.98;;;11.10;;
75766;SDS011;64378;55.596;13.014;2023-03-21T07:23:32;25.00;;;10.63;;
75766;SDS011;64378;55.596;13.014;2023-03-21T07:25:58;25.63;;;10.82;;
75766;SDS011;64378;55.596;13.014;2023-03-21T07:28:25;23.90;;;10.68;;
75766;SDS011;64378;55.596;13.014;2023-03-21T07:30:52;23.58;;;10.73;;
75766;SDS011;64378;55.596;13.014;2023-03-21T07:33:19;22.30;;;10.00;;
75766;SDS011;64378;55.596;13.014;2023-03-21T07:35:45;23.93;;;10.70;;
75766;SDS011;64378;55.596;13.014;2023-03-21T07:38:10;22.40;;;10.40;;
75766;SDS011;64378;55.596;13.014;2023-03-21T07:40:37;22.35;;;9.52;;
75766;SDS011;64378;55.596;13.014;2023-03-21T07:43:03;23.57;;;9.77;;
75766;SDS011;64378;55.596;13.014;2023-03-21T07:45:28;22.50;;;9.43;;
75766;SDS011;64378;55.596;13.014;2023-03-21T07:47:54;19.17;;;9.27;;
75766;SDS011;64378;55.596;13.014;2023-03-21T07:50:19;20.90;;;9.37;;
75766;SDS011;64378;55.596;13.014;2023-03-21T07:52:46;20.88;;;9.63;;
75766;SDS011;64378;55.596;13.014;2023-03-21T07:55:11;19.08;;;8.38;;
75766;SDS011;64378;55.596;13.014;2023-03-21T07:57:37;17.50;;;8.33;;
75766;SDS011;64378;55.596;13.014;2023-03-21T08:00:03;17.17;;;8.33;;
75766;SDS011;64378;55.596;13.014;2023-03-21T08:02:30;19.67;;;8.10;;
75766;SDS011;64378;55.596;13.014;2023-03-21T08:04:55;17.93;;;8.07;;
75766;SDS011;64378;55.596;13.014;2023-03-21T08:07:21;22.58;;;8.68;;
75766;SDS011;64378;55.596;13.014;2023-03-21T08:09:46;17.23;;;8.00;;
75766;SDS011;64378;55.596;13.014;2023-03-21T08:12:11;18.33;;;7.43;;
75766;SDS011;64378;55.596;13.014;2023-03-21T08:14:37;16.13;;;7.30;;
75766;SDS011;64378;55.596;13.014;2023-03-21T08:17:03;16.37;;;7.30;;
75766;SDS011;64378;55.596;13.014;2023-03-21T08:19:30;14.98;;;7.25;;
75766;SDS011;64378;55.596;13.014;2023-03-21T08:21:55;16.77;;;7.27;;
75766;SDS011;64378;55.596;13.014;2023-03-21T08:24:24;15.73;;;7.05;;
75766;SDS011;64378;55.596;13.014;2023-03-21T08:26:49;14.63;;;6.65;;
75766;SDS011;64378;55.596;13.014;2023-03-21T08:29:15;15.33;;;6.77;;
75766;SDS011;64378;55.596;13.014;2023-03-21T08:31:40;15.77;;;7.35;;
75766;SDS011;64378;55.596;13.014;2023-03-21T08:34:06;15.88;;;6.43;;
75766;SDS011;64378;55.596;13.014;2023-03-21T08:36:32;13.23;;;6.37;;
75766;SDS011;64378;55.596;13.014;2023-03-21T08:39:00;13.80;;;6.45;;
75766;SDS011;64378;55.596;13.014;2023-03-21T08:41:32;15.25;;;6.25;;
75766;SDS011;64378;55.596;13.014;2023-03-21T08:43:59;12.75;;;5.95;;
75766;SDS011;64378;55.596;13.014;2023-03-21T08:46:25;14.43;;;6.27;;
75766;SDS011;64378;55.596;13.014;2023-03-21T08:48:51;13.98;;;6.03;;
75766;SDS011;64378;55.596;13.014;2023-03-21T08:51:17;14.03;;;5.67;;
75766;SDS011;64378;55.596;13.014;2023-03-21T08:53:42;12.02;;;5.55;;
75766;SDS011;64378;55.596;13.014;2023-03-21T08:56:08;12.27;;;5.47;;
75766;SDS011;64378;55.596;13.014;2023-03-21T08:58:34;12.27;;;5.30;;
75766;SDS011;64378;55.596;13.014;2023-03-21T09:01:00;12.32;;;5.18;;
75766;SDS011;64378;55.596;13.014;2023-03-21T09:03:26;12.80;;;5.65;;
75766;SDS011;64378;55.596;13.014;2023-03-21T09:05:52;11.23;;;5.25;;
75766;SDS011;64378;55.596;13.014;2023-03-21T09:08:18;12.45;;;5.45;;
75766;SDS011;64378;55.596;13.014;2023-03-21T09:10:53;12.55;;;5.22;;
75766;SDS011;64378;55.596;13.014;2023-03-21T09:13:19;10.87;;;4.67;;
75766;SDS011;64378;55.596;13.014;2023-03-21T09:15:45;11.65;;;5.13;;
75766;SDS011;64378;55.596;13.014;2023-03-21T09:18:10;10.93;;;4.93;;
75766;SDS011;64378;55.596;13.014;2023-03-21T09:20:42;11.25;;;5.03;;
75766;SDS011;64378;55.596;13.014;2023-03-21T09:23:09;12.02;;;5.13;;
75766;SDS011;64378;55.596;13.014;2023-03-21T09:25:36;11.10;;;4.90;;
75766;SDS011;64378;55.596;13.014;2023-03-21T09:28:02;11.20;;;4.80;;
75766;SDS011;64378;55.596;13.014;2023-03-21T09:30:29;10.38;;;4.57;;
75766;SDS011;64378;55.596;13.014;2023-03-21T09:32:57;11.93;;;4.78;;
75766;SDS011;64378;55.596;13.014;2023-03-21T09:35:24;9.88;;;4.38;;
75766;SDS011;64378;55.596;13.014;2023-03-21T09:37:51;10.82;;;4.50;;
75766;SDS011;64378;55.596;13.014;2023-03-21T09:40:18;9.45;;;4.45;;
75766;SDS011;64378;55.596;13.014;2023-03-21T09:45:31;10.27;;;4.03;;
75766;SDS011;64378;55.596;13.014;2023-03-21T09:48:05;9.63;;;4.28;;
75766;SDS011;64378;55.596;13.014;2023-03-21T09:50:43;10.45;;;4.32;;
75766;SDS011;64378;55.596;13.014;2023-03-21T09:55:49;8.85;;;3.90;;
75766;SDS011;64378;55.596;13.014;2023-03-21T10:03:51;10.35;;;4.40;;
75766;SDS011;64378;55.596;13.014;2023-03-21T10:06:20;10.57;;;3.77;;
75766;SDS011;64378;55.596;13.014;2023-03-21T10:08:52;10.80;;;4.28;;
75766;SDS011;64378;55.596;13.014;2023-03-21T10:11:30;9.65;;;4.05;;
75766;SDS011;64378;55.596;13.014;2023-03-21T10:13:59;8.73;;;3.92;;
75766;SDS011;64378;55.596;13.014;2023-03-21T10:16:51;9.27;;;3.90;;
75766;SDS011;64378;55.596;13.014;2023-03-21T10:19:22;8.50;;;4.00;;
75766;SDS011;64378;55.596;13.014;2023-03-21T10:21:48;8.88;;;3.90;;
75766;SDS011;64378;55.596;13.014;2023-03-21T10:24:16;10.80;;;4.18;;
75766;SDS011;64378;55.596;13.014;2023-03-21T10:26:46;9.17;;;4.20;;
75766;SDS011;64378;55.596;13.014;2023-03-21T10:29:13;8.95;;;3.72;;
75766;SDS011;64378;55.596;13.014;2023-03-21T10:31:40;8.70;;;3.72;;
75766;SDS011;64378;55.596;13.014;2023-03-21T10:34:11;8.70;;;3.95;;
75766;SDS011;64378;55.596;13.014;2023-03-21T10:36:41;9.80;;;4.25;;
75766;SDS011;64378;55.596;13.014;2023-03-21T10:39:10;9.13;;;4.10;;
75766;SDS011;64378;55.596;13.014;2023-03-21T10:41:51;8.82;;;3.80;;
75766;SDS011;64378;55.596;13.014;2023-03-21T10:44:17;8.73;;;3.67;;
75766;SDS011;64378;55.596;13.014;2023-03-21T10:46:50;8.53;;;3.63;;
75766;SDS011;64378;55.596;13.014;2023-03-21T10:49:20;8.88;;;3.97;;
75766;SDS011;64378;55.596;13.014;2023-03-21T10:51:47;8.73;;;3.65;;
75766;SDS011;64378;55.596;13.014;2023-03-21T10:54:17;9.20;;;3.87;;
75766;SDS011;64378;55.596;13.014;2023-03-21T10:57:04;8.55;;;3.50;;
75766;SDS011;64378;55.596;13.014;2023-03-21T10:59:37;8.65;;;3.85;;
75766;SDS011;64378;55.596;13.014;2023-03-21T11:02:10;8.55;;;3.60;;
75766;SDS011;64378;55.596;13.014;2023-03-21T11:04:43;7.57;;;2.90;;
75766;SDS011;64378;55.596;13.014;2023-03-21T11:07:11;10.10;;;3.13;;
75766;SDS011;64378;55.596;13.014;2023-03-21T11:09:42;8.60;;;3.33;;
75766;SDS011;64378;55.596;13.014;2023-03-21T11:12:17;8.77;;;3.53;;
75766;SDS011;64378;55.596;13.014;2023-03-21T11:14:53;10.15;;;3.88;;
75766;SDS011;64378;55.596;13.014;2023-03-21T11:17:20;10.47;;;3.77;;
75766;SDS011;64378;55.596;13.014;2023-03-21T11:22:19;10.52;;;3.90;;
75766;SDS011;64378;55.596;13.014;2023-03-21T11:24:49;10.20;;;3.05;;
75766;SDS011;64378;55.596;13.014;2023-03-21T11:27:16;9.32;;;3.50;;
75766;SDS011;64378;55.596;13.014;2023-03-21T11:29:45;8.80;;;3.33;;
75766;SDS011;64378;55.596;13.014;2023-03-21T11:37:37;10.60;;;3.03;;
75766;SDS011;64378;55.596;13.014;2023-03-21T11:45:28;8.75;;;3.15;;
75766;SDS011;64378;55.596;13.014;2023-03-21T11:47:59;9.27;;;3.33;;
75766;SDS011;64378;55.596;13.014;2023-03-21T12:00:40;7.97;;;3.30;;
75766;SDS011;64378;55.596;13.014;2023-03-21T12:11:19;9.50;;;3.30;;
75766;SDS011;64378;55.596;13.014;2023-03-21T12:13:50;8.00;;;3.00;;
75766;SDS011;64378;55.596;13.014;2023-03-21T12:32:56;6.83;;;2.70;;
75766;SDS011;64378;55.596;13.014;2023-03-21T12:44:44;7.30;;;2.83;;
75766;SDS011;64378;55.596;13.014;2023-03-21T12:47:33;7.93;;;3.05;;
75766;SDS011;64378;55.596;13.014;2023-03-21T12:50:14;7.57;;;2.90;;
75766;SDS011;64378;55.596;13.014;2023-03-21T12:53:16;7.40;;;3.10;;
75766;SDS011;64378;55.596;13.014;2023-03-21T12:56:04;6.53;;;2.60;;
75766;SDS011;64378;55.596;13.014;2023-03-21T12:58:36;7.53;;;3.10;;
75766;SDS011;64378;55.596;13.014;2023-03-21T13:01:09;7.45;;;3.00;;
75766;SDS011;64378;55.596;13.014;2023-03-21T13:03:40;7.70;;;3.08;;
75766;SDS011;64378;55.596;13.014;2023-03-21T13:06:09;6.93;;;2.72;;
75766;SDS011;64378;55.596;13.014;2023-03-21T13:08:41;7.85;;;2.83;;
75766;SDS011;64378;55.596;13.014;2023-03-21T13:11:12;8.20;;;3.28;;
75766;SDS011;64378;55.596;13.014;2023-03-21T13:13:46;8.35;;;3.30;;
75766;SDS011;64378;55.596;13.014;2023-03-21T13:19:13;8.43;;;3.97;;
75766;SDS011;64378;55.596;13.014;2023-03-21T13:21:49;9.60;;;3.78;;
75766;SDS011;64378;55.596;13.014;2023-03-21T13:27:00;8.48;;;4.00;;
75766;SDS011;64378;55.596;13.014;2023-03-21T13:29:31;8.93;;;3.70;;
75766;SDS011;64378;55.596;13.014;2023-03-21T13:32:09;10.73;;;4.10;;
75766;SDS011;64378;55.596;13.014;2023-03-21T13:34:39;11.43;;;3.97;;
75766;SDS011;64378;55.596;13.014;2023-03-21T13:37:05;9.60;;;4.43;;
75766;SDS011;64378;55.596;13.014;2023-03-21T13:39:42;10.25;;;4.20;;
75766;SDS011;64378;55.596;13.014;2023-03-21T13:42:11;10.45;;;4.15;;
75766;SDS011;64378;55.596;13.014;2023-03-21T13:44:48;11.43;;;4.38;;
75766;SDS011;64378;55.596;13.014;2023-03-21T13:47:27;10.23;;;4.33;;
75766;SDS011;64378;55.596;13.014;2023-03-21T13:52:37;10.82;;;4.28;;
75766;SDS011;64378;55.596;13.014;2023-03-21T13:55:03;10.43;;;4.30;;
75766;SDS011;64378;55.596;13.014;2023-03-21T13:57:41;10.52;;;4.32;;
75766;SDS011;64378;55.596;13.014;2023-03-21T14:00:27;9.63;;;4.72;;
75766;SDS011;64378;55.596;13.014;2023-03-21T14:05:37;9.65;;;4.50;;
75766;SDS011;64378;55.596;13.014;2023-03-21T14:08:04;9.35;;;4.22;;
75766;SDS011;64378;55.596;13.014;2023-03-21T14:10:38;10.05;;;4.13;;
75766;SDS011;64378;55.596;13.014;2023-03-21T14:13:08;12.00;;;4.70;;
75766;SDS011;64378;55.596;13.014;2023-03-21T14:15:42;14.30;;;4.67;;
75766;SDS011;64378;55.596;13.014;2023-03-21T14:18:15;12.73;;;4.87;;
75766;SDS011;64378;55.596;13.014;2023-03-21T14:20:43;17.83;;;5.18;;
75766;SDS011;64378;55.596;13.014;2023-03-21T14:23:12;14.50;;;5.30;;
75766;SDS011;64378;55.596;13.014;2023-03-21T14:25:40;13.68;;;5.13;;
75766;SDS011;64378;55.596;13.014;2023-03-21T14:28:12;13.65;;;5.15;;
75766;SDS011;64378;55.596;13.014;2023-03-21T14:30:40;17.15;;;5.20;;
75766;SDS011;64378;55.596;13.014;2023-03-21T14:33:12;16.05;;;4.80;;
75766;SDS011;64378;55.596;13.014;2023-03-21T14:35:42;13.30;;;5.20;;
75766;SDS011;64378;55.596;13.014;2023-03-21T14:38:21;14.63;;;4.57;;
75766;SDS011;64378;55.596;13.014;2023-03-21T14:40:49;13.93;;;5.32;;
75766;SDS011;64378;55.596;13.014;2023-03-21T14:43:20;12.60;;;5.18;;
75766;SDS011;64378;55.596;13.014;2023-03-21T14:45:47;13.38;;;4.90;;
75766;SDS011;64378;55.596;13.014;2023-03-21T14:48:17;13.18;;;4.93;;
75766;SDS011;64378;55.596;13.014;2023-03-21T14:50:46;12.37;;;4.73;;
75766;SDS011;64378;55.596;13.014;2023-03-21T14:53:18;12.52;;;4.18;;
75766;SDS011;64378;55.596;13.014;2023-03-21T14:55:47;12.90;;;4.75;;
75766;SDS011;64378;55.596;13.014;2023-03-21T14:58:19;13.17;;;4.60;;
75766;SDS011;64378;55.596;13.014;2023-03-21T15:00:48;12.50;;;3.85;;
75766;SDS011;64378;55.596;13.014;2023-03-21T15:03:15;11.20;;;4.22;;
75766;SDS011;64378;55.596;13.014;2023-03-21T15:05:43;14.90;;;4.78;;
75766;SDS011;64378;55.596;13.014;2023-03-21T15:08:19;12.95;;;4.60;;
75766;SDS011;64378;55.596;13.014;2023-03-21T15:11:03;12.88;;;4.53;;
75766;SDS011;64378;55.596;13.014;2023-03-21T15:13:31;12.45;;;4.07;;
75766;SDS011;64378;55.596;13.014;2023-03-21T15:15:59;11.23;;;4.57;;
75766;SDS011;64378;55.596;13.014;2023-03-21T15:18:26;12.32;;;4.13;;
75766;SDS011;64378;55.596;13.014;2023-03-21T15:20:54;10.80;;;4.10;;
75766;SDS011;64378;55.596;13.014;2023-03-21T15:25:53;10.43;;;3.70;;
75766;SDS011;64378;55.596;13.014;2023-03-21T15:28:18;10.00;;;3.35;;
75766;SDS011;64378;55.596;13.014;2023-03-21T15:30:48;11.73;;;3.77;;
75766;SDS011;64378;55.596;13.014;2023-03-21T15:33:15;9.13;;;3.53;;
75766;SDS011;64378;55.596;13.014;2023-03-21T15:35:43;8.88;;;3.83;;
75766;SDS011;64378;55.596;13.014;2023-03-21T15:38:46;11.70;;;4.10;;
75766;SDS011;64378;55.596;13.014;2023-03-21T15:41:14;9.35;;;4.10;;
75766;SDS011;64378;55.596;13.014;2023-03-21T15:43:43;9.30;;;3.80;;
75766;SDS011;64378;55.596;13.014;2023-03-21T15:46:15;10.77;;;3.40;;
75766;SDS011;64378;55.596;13.014;2023-03-21T15:51:48;9.10;;;3.67;;
75766;SDS011;64378;55.596;13.014;2023-03-21T15:54:29;8.70;;;3.30;;
75766;SDS011;64378;55.596;13.014;2023-03-21T15:57:03;8.48;;;3.15;;
75766;SDS011;64378;55.596;13.014;2023-03-21T15:59:40;8.40;;;3.30;;
75766;SDS011;64378;55.596;13.014;2023-03-21T16:02:19;7.88;;;2.40;;
75766;SDS011;64378;55.596;13.014;2023-03-21T16:04:58;9.23;;;3.17;;
75766;SDS011;64378;55.596;13.014;2023-03-21T16:07:25;8.00;;;2.88;;
75766;SDS011;64378;55.596;13.014;2023-03-21T16:09:56;8.13;;;3.00;;
75766;SDS011;64378;55.596;13.014;2023-03-21T16:12:25;7.85;;;2.70;;
75766;SDS011;64378;55.596;13.014;2023-03-21T16:14:51;8.17;;;3.00;;
75766;SDS011;64378;55.596;13.014;2023-03-21T16:19:54;7.60;;;2.50;;
75766;SDS011;64378;55.596;13.014;2023-03-21T16:22:19;7.20;;;2.70;;
75766;SDS011;64378;55.596;13.014;2023-03-21T16:24:46;9.20;;;2.80;;
75766;SDS011;64378;55.596;13.014;2023-03-21T16:27:12;7.40;;;2.75;;
75766;SDS011;64378;55.596;13.014;2023-03-21T16:29:45;7.13;;;2.40;;
75766;SDS011;64378;55.596;13.014;2023-03-21T16:32:11;7.28;;;2.40;;
75766;SDS011;64378;55.596;13.014;2023-03-21T16:34:39;7.47;;;2.50;;
75766;SDS011;64378;55.596;13.014;2023-03-21T16:37:08;6.70;;;2.10;;